sensor_id;sensor_type;location;lat;lon;timestamp;P1;durP1;ratioP1;P2;durP2;ratioP2
72095;SDS011;59968;51.084;16.748;2023-04-15T00:01:16;38.00;;;19.50;;
72095;SDS011;59968;51.084;16.748;2023-04-15T00:03:46;44.20;;;22.20;;
72095;SDS011;59968;51.084;16.748;2023-04-15T00:06:18;33.80;;;18.10;;
72095;SDS011;59968;51.084;16.748;2023-04-15T00:08:49;35.00;;;18.20;;
72095;SDS011;59968;51.084;16.748;2023-04-15T00:11:17;27.00;;;14.90;;
72095;SDS011;59968;51.084;16.748;2023-04-15T00:13:46;33.90;;;17.30;;
72095;SDS011;59968;51.084;16.748;2023-04-15T00:16:15;37.90;;;19.50;;
72095;SDS011;59968;51.084;16.748;2023-04-15T00:18:44;37.80;;;19.70;;
72095;SDS011;59968;51.084;16.748;2023-04-15T00:21:12;32.50;;;17.20;;
72095;SDS011;59968;51.084;16.748;2023-04-15T00:23:41;32.70;;;17.10;;
72095;SDS011;59968;51.084;16.748;2023-04-15T00:26:09;30.40;;;16.90;;
72095;SDS011;59968;51.084;16.748;2023-04-15T00:28:38;28.90;;;15.60;;
72095;SDS011;59968;51.084;16.748;2023-04-15T00:31:06;28.40;;;14.90;;
72095;SDS011;59968;51.084;16.748;2023-04-15T00:33:34;28.90;;;15.80;;
72095;SDS011;59968;51.084;16.748;2023-04-15T00:36:05;25.80;;;14.00;;
72095;SDS011;59968;51.084;16.748;2023-04-15T00:38:36;25.00;;;13.80;;
72095;SDS011;59968;51.084;16.748;2023-04-15T00:41:05;19.90;;;11.30;;
72095;SDS011;59968;51.084;16.748;2023-04-15T00:43:34;19.00;;;10.30;;
72095;SDS011;59968;51.084;16.748;2023-04-15T00:46:04;20.90;;;10.80;;
72095;SDS011;59968;51.084;16.748;2023-04-15T00:48:33;17.40;;;10.10;;
72095;SDS011;59968;51.084;16.748;2023-04-15T00:51:03;19.90;;;10.50;;
72095;SDS011;59968;51.084;16.748;2023-04-15T00:53:32;16.00;;;9.50;;
72095;SDS011;59968;51.084;16.748;2023-04-15T00:56:00;15.90;;;9.00;;
72095;SDS011;59968;51.084;16.748;2023-04-15T00:58:29;15.60;;;8.50;;
72095;SDS011;59968;51.084;16.748;2023-04-15T01:00:57;14.10;;;8.60;;
72095;SDS011;59968;51.084;16.748;2023-04-15T01:03:27;14.50;;;8.20;;
72095;SDS011;59968;51.084;16.748;2023-04-15T01:05:57;14.30;;;8.60;;
72095;SDS011;59968;51.084;16.748;2023-04-15T01:08:31;13.20;;;6.80;;
72095;SDS011;59968;51.084;16.748;2023-04-15T01:11:00;17.60;;;9.10;;
72095;SDS011;59968;51.084;16.748;2023-04-15T01:13:31;13.10;;;8.10;;
72095;SDS011;59968;51.084;16.748;2023-04-15T01:16:01;14.70;;;8.40;;
72095;SDS011;59968;51.084;16.748;2023-04-15T01:18:30;11.10;;;7.10;;
72095;SDS011;59968;51.084;16.748;2023-04-15T01:21:00;15.30;;;8.60;;
72095;SDS011;59968;51.084;16.748;2023-04-15T01:23:32;14.30;;;9.10;;
72095;SDS011;59968;51.084;16.748;2023-04-15T01:26:04;15.10;;;9.00;;
72095;SDS011;59968;51.084;16.748;2023-04-15T01:28:36;13.40;;;8.20;;
72095;SDS011;59968;51.084;16.748;2023-04-15T01:31:09;14.60;;;8.60;;
72095;SDS011;59968;51.084;16.748;2023-04-15T01:33:40;14.00;;;8.20;;
72095;SDS011;59968;51.084;16.748;2023-04-15T01:36:09;14.40;;;9.00;;
72095;SDS011;59968;51.084;16.748;2023-04-15T01:38:38;17.10;;;9.10;;
72095;SDS011;59968;51.084;16.748;2023-04-15T01:41:06;14.50;;;8.60;;
72095;SDS011;59968;51.084;16.748;2023-04-15T01:43:35;14.20;;;8.60;;
72095;SDS011;59968;51.084;16.748;2023-04-15T01:46:09;15.40;;;8.50;;
72095;SDS011;59968;51.084;16.748;2023-04-15T01:48:37;14.90;;;9.70;;
72095;SDS011;59968;51.084;16.748;2023-04-15T01:51:06;12.70;;;7.60;;
72095;SDS011;59968;51.084;16.748;2023-04-15T01:53:35;16.40;;;9.60;;
72095;SDS011;59968;51.084;16.748;2023-04-15T01:56:04;12.90;;;8.50;;
72095;SDS011;59968;51.084;16.748;2023-04-15T01:58:34;17.70;;;9.20;;
72095;SDS011;59968;51.084;16.748;2023-04-15T02:01:03;13.70;;;8.70;;
72095;SDS011;59968;51.084;16.748;2023-04-15T02:03:31;17.20;;;9.20;;
72095;SDS011;59968;51.084;16.748;2023-04-15T02:06:00;13.90;;;8.30;;
72095;SDS011;59968;51.084;16.748;2023-04-15T02:08:29;14.90;;;8.30;;
72095;SDS011;59968;51.084;16.748;2023-04-15T02:10:58;14.00;;;8.60;;
72095;SDS011;59968;51.084;16.748;2023-04-15T02:13:28;11.00;;;6.90;;
72095;SDS011;59968;51.084;16.748;2023-04-15T02:15:57;10.70;;;6.70;;
72095;SDS011;59968;51.084;16.748;2023-04-15T02:18:26;13.00;;;7.70;;
72095;SDS011;59968;51.084;16.748;2023-04-15T02:20:55;14.00;;;8.40;;
72095;SDS011;59968;51.084;16.748;2023-04-15T02:23:25;14.40;;;8.70;;
72095;SDS011;59968;51.084;16.748;2023-04-15T02:25:54;13.40;;;8.20;;
72095;SDS011;59968;51.084;16.748;2023-04-15T02:28:22;14.40;;;9.00;;
72095;SDS011;59968;51.084;16.748;2023-04-15T02:30:51;15.60;;;9.70;;
72095;SDS011;59968;51.084;16.748;2023-04-15T02:33:20;14.00;;;8.00;;
72095;SDS011;59968;51.084;16.748;2023-04-15T02:35:48;16.30;;;9.20;;
72095;SDS011;59968;51.084;16.748;2023-04-15T02:38:17;17.80;;;10.20;;
72095;SDS011;59968;51.084;16.748;2023-04-15T02:40:47;15.50;;;8.90;;
72095;SDS011;59968;51.084;16.748;2023-04-15T02:43:17;16.30;;;9.60;;
72095;SDS011;59968;51.084;16.748;2023-04-15T02:45:45;14.80;;;9.10;;
72095;SDS011;59968;51.084;16.748;2023-04-15T02:48:14;15.00;;;9.70;;
72095;SDS011;59968;51.084;16.748;2023-04-15T02:50:47;16.90;;;9.60;;
72095;SDS011;59968;51.084;16.748;2023-04-15T02:53:16;14.80;;;8.70;;
72095;SDS011;59968;51.084;16.748;2023-04-15T02:55:44;16.70;;;9.20;;
72095;SDS011;59968;51.084;16.748;2023-04-15T02:58:13;13.90;;;9.00;;
72095;SDS011;59968;51.084;16.748;2023-04-15T03:00:44;17.10;;;9.60;;
72095;SDS011;59968;51.084;16.748;2023-04-15T03:03:13;16.60;;;9.90;;
72095;SDS011;59968;51.084;16.748;2023-04-15T03:05:43;16.30;;;9.10;;
72095;SDS011;59968;51.084;16.748;2023-04-15T03:08:12;16.20;;;9.90;;
72095;SDS011;59968;51.084;16.748;2023-04-15T03:10:44;15.30;;;8.90;;
72095;SDS011;59968;51.084;16.748;2023-04-15T03:13:12;15.80;;;9.80;;
72095;SDS011;59968;51.084;16.748;2023-04-15T03:15:45;16.90;;;10.00;;
72095;SDS011;59968;51.084;16.748;2023-04-15T03:18:14;16.80;;;10.20;;
72095;SDS011;59968;51.084;16.748;2023-04-15T03:21:00;16.80;;;10.80;;
72095;SDS011;59968;51.084;16.748;2023-04-15T03:23:30;17.70;;;10.60;;
72095;SDS011;59968;51.084;16.748;2023-04-15T03:26:02;20.30;;;11.10;;
72095;SDS011;59968;51.084;16.748;2023-04-15T03:28:33;19.20;;;10.30;;
72095;SDS011;59968;51.084;16.748;2023-04-15T03:31:01;21.20;;;11.90;;
72095;SDS011;59968;51.084;16.748;2023-04-15T03:33:30;20.90;;;12.10;;
72095;SDS011;59968;51.084;16.748;2023-04-15T03:35:59;23.00;;;12.50;;
72095;SDS011;59968;51.084;16.748;2023-04-15T03:38:27;21.90;;;12.10;;
72095;SDS011;59968;51.084;16.748;2023-04-15T03:40:55;18.50;;;10.70;;
72095;SDS011;59968;51.084;16.748;2023-04-15T03:43:23;20.60;;;10.70;;
72095;SDS011;59968;51.084;16.748;2023-04-15T03:45:53;19.20;;;12.00;;
72095;SDS011;59968;51.084;16.748;2023-04-15T03:48:21;15.80;;;9.70;;
72095;SDS011;59968;51.084;16.748;2023-04-15T03:50:49;14.80;;;8.60;;
72095;SDS011;59968;51.084;16.748;2023-04-15T03:53:17;14.10;;;7.70;;
72095;SDS011;59968;51.084;16.748;2023-04-15T03:55:46;11.10;;;6.40;;
72095;SDS011;59968;51.084;16.748;2023-04-15T03:58:14;11.20;;;6.70;;
72095;SDS011;59968;51.084;16.748;2023-04-15T04:00:43;11.20;;;6.40;;
72095;SDS011;59968;51.084;16.748;2023-04-15T04:03:11;9.50;;;5.40;;
72095;SDS011;59968;51.084;16.748;2023-04-15T04:05:41;10.30;;;5.50;;
72095;SDS011;59968;51.084;16.748;2023-04-15T04:08:10;11.80;;;6.10;;
72095;SDS011;59968;51.084;16.748;2023-04-15T04:10:41;6.80;;;3.60;;
72095;SDS011;59968;51.084;16.748;2023-04-15T04:13:10;9.30;;;4.70;;
72095;SDS011;59968;51.084;16.748;2023-04-15T04:15:38;9.80;;;4.80;;
72095;SDS011;59968;51.084;16.748;2023-04-15T04:18:07;8.80;;;4.70;;
72095;SDS011;59968;51.084;16.748;2023-04-15T04:20:35;9.20;;;4.80;;
72095;SDS011;59968;51.084;16.748;2023-04-15T04:23:03;9.90;;;5.20;;
72095;SDS011;59968;51.084;16.748;2023-04-15T04:25:32;9.70;;;4.40;;
72095;SDS011;59968;51.084;16.748;2023-04-15T04:28:01;7.40;;;4.20;;
72095;SDS011;59968;51.084;16.748;2023-04-15T04:30:30;6.00;;;3.20;;
72095;SDS011;59968;51.084;16.748;2023-04-15T04:32:59;6.30;;;3.00;;
72095;SDS011;59968;51.084;16.748;2023-04-15T04:35:28;5.50;;;2.90;;
72095;SDS011;59968;51.084;16.748;2023-04-15T04:37:56;5.30;;;2.90;;
72095;SDS011;59968;51.084;16.748;2023-04-15T04:40:25;4.60;;;2.60;;
72095;SDS011;59968;51.084;16.748;2023-04-15T04:42:54;5.10;;;2.50;;
72095;SDS011;59968;51.084;16.748;2023-04-15T04:45:23;4.30;;;2.40;;
72095;SDS011;59968;51.084;16.748;2023-04-15T04:47:51;3.90;;;2.30;;
72095;SDS011;59968;51.084;16.748;2023-04-15T04:50:19;4.00;;;2.40;;
72095;SDS011;59968;51.084;16.748;2023-04-15T04:52:48;4.10;;;2.40;;
72095;SDS011;59968;51.084;16.748;2023-04-15T04:55:17;3.90;;;2.20;;
72095;SDS011;59968;51.084;16.748;2023-04-15T04:57:46;3.40;;;2.10;;
72095;SDS011;59968;51.084;16.748;2023-04-15T05:00:14;3.30;;;2.20;;
72095;SDS011;59968;51.084;16.748;2023-04-15T05:02:44;3.90;;;2.20;;
72095;SDS011;59968;51.084;16.748;2023-04-15T05:05:13;2.60;;;1.60;;
72095;SDS011;59968;51.084;16.748;2023-04-15T05:07:41;3.40;;;1.90;;
72095;SDS011;59968;51.084;16.748;2023-04-15T05:10:10;2.20;;;1.70;;
72095;SDS011;59968;51.084;16.748;2023-04-15T05:12:38;2.40;;;1.50;;
72095;SDS011;59968;51.084;16.748;2023-04-15T05:15:07;3.30;;;1.30;;
72095;SDS011;59968;51.084;16.748;2023-04-15T05:17:36;1.60;;;1.30;;
72095;SDS011;59968;51.084;16.748;2023-04-15T05:20:05;2.50;;;1.40;;
72095;SDS011;59968;51.084;16.748;2023-04-15T05:22:34;2.50;;;1.20;;
72095;SDS011;59968;51.084;16.748;2023-04-15T05:25:03;1.30;;;0.90;;
72095;SDS011;59968;51.084;16.748;2023-04-15T05:27:31;1.20;;;0.90;;
72095;SDS011;59968;51.084;16.748;2023-04-15T05:30:00;1.10;;;0.60;;
72095;SDS011;59968;51.084;16.748;2023-04-15T05:32:28;1.60;;;1.00;;
72095;SDS011;59968;51.084;16.748;2023-04-15T05:34:57;1.80;;;1.00;;
72095;SDS011;59968;51.084;16.748;2023-04-15T05:37:25;1.20;;;0.70;;
72095;SDS011;59968;51.084;16.748;2023-04-15T05:39:54;1.90;;;1.00;;
72095;SDS011;59968;51.084;16.748;2023-04-15T05:42:23;1.40;;;0.90;;
72095;SDS011;59968;51.084;16.748;2023-04-15T05:44:52;1.30;;;0.70;;
72095;SDS011;59968;51.084;16.748;2023-04-15T05:47:20;1.50;;;0.90;;
72095;SDS011;59968;51.084;16.748;2023-04-15T05:49:49;1.20;;;0.70;;
72095;SDS011;59968;51.084;16.748;2023-04-15T05:52:17;1.20;;;0.80;;
72095;SDS011;59968;51.084;16.748;2023-04-15T05:54:46;1.90;;;0.90;;
72095;SDS011;59968;51.084;16.748;2023-04-15T05:57:15;2.90;;;1.20;;
72095;SDS011;59968;51.084;16.748;2023-04-15T05:59:43;1.70;;;1.30;;
72095;SDS011;59968;51.084;16.748;2023-04-15T06:02:12;1.70;;;1.30;;
72095;SDS011;59968;51.084;16.748;2023-04-15T06:04:41;1.80;;;1.00;;
72095;SDS011;59968;51.084;16.748;2023-04-15T06:07:09;1.70;;;1.20;;
72095;SDS011;59968;51.084;16.748;2023-04-15T06:09:38;1.30;;;1.20;;
72095;SDS011;59968;51.084;16.748;2023-04-15T06:12:06;1.60;;;1.20;;
72095;SDS011;59968;51.084;16.748;2023-04-15T06:14:39;2.20;;;1.40;;
72095;SDS011;59968;51.084;16.748;2023-04-15T06:17:08;1.40;;;1.10;;
72095;SDS011;59968;51.084;16.748;2023-04-15T06:19:36;2.50;;;1.20;;
72095;SDS011;59968;51.084;16.748;2023-04-15T06:22:05;2.10;;;1.00;;
72095;SDS011;59968;51.084;16.748;2023-04-15T06:24:34;3.20;;;1.40;;
72095;SDS011;59968;51.084;16.748;2023-04-15T06:27:04;2.30;;;1.10;;
72095;SDS011;59968;51.084;16.748;2023-04-15T06:29:32;1.50;;;0.90;;
72095;SDS011;59968;51.084;16.748;2023-04-15T06:32:00;2.10;;;1.00;;
72095;SDS011;59968;51.084;16.748;2023-04-15T06:34:29;1.80;;;0.90;;
72095;SDS011;59968;51.084;16.748;2023-04-15T06:36:58;1.80;;;1.10;;
72095;SDS011;59968;51.084;16.748;2023-04-15T06:39:28;2.80;;;1.00;;
72095;SDS011;59968;51.084;16.748;2023-04-15T06:41:56;2.30;;;1.20;;
72095;SDS011;59968;51.084;16.748;2023-04-15T06:44:25;1.40;;;0.90;;
72095;SDS011;59968;51.084;16.748;2023-04-15T06:46:54;1.20;;;0.90;;
72095;SDS011;59968;51.084;16.748;2023-04-15T06:49:22;1.90;;;0.90;;
72095;SDS011;59968;51.084;16.748;2023-04-15T06:51:51;1.20;;;0.70;;
72095;SDS011;59968;51.084;16.748;2023-04-15T06:54:20;1.80;;;0.80;;
72095;SDS011;59968;51.084;16.748;2023-04-15T06:56:49;1.30;;;0.90;;
72095;SDS011;59968;51.084;16.748;2023-04-15T06:59:18;1.90;;;0.80;;
72095;SDS011;59968;51.084;16.748;2023-04-15T07:01:48;2.80;;;1.30;;
72095;SDS011;59968;51.084;16.748;2023-04-15T07:04:18;1.80;;;1.10;;
72095;SDS011;59968;51.084;16.748;2023-04-15T07:06:48;1.20;;;0.80;;
72095;SDS011;59968;51.084;16.748;2023-04-15T07:09:19;0.70;;;0.70;;
72095;SDS011;59968;51.084;16.748;2023-04-15T07:11:47;1.00;;;0.80;;
72095;SDS011;59968;51.084;16.748;2023-04-15T07:14:17;1.60;;;0.90;;
72095;SDS011;59968;51.084;16.748;2023-04-15T07:16:46;2.20;;;1.00;;
72095;SDS011;59968;51.084;16.748;2023-04-15T07:19:14;1.40;;;0.70;;
72095;SDS011;59968;51.084;16.748;2023-04-15T07:21:43;1.50;;;0.70;;
72095;SDS011;59968;51.084;16.748;2023-04-15T07:24:13;1.10;;;0.70;;
72095;SDS011;59968;51.084;16.748;2023-04-15T07:26:45;2.90;;;0.80;;
72095;SDS011;59968;51.084;16.748;2023-04-15T07:29:14;1.70;;;1.00;;
72095;SDS011;59968;51.084;16.748;2023-04-15T07:31:44;1.40;;;0.90;;
72095;SDS011;59968;51.084;16.748;2023-04-15T07:34:15;1.30;;;0.70;;
72095;SDS011;59968;51.084;16.748;2023-04-15T07:36:44;1.20;;;0.80;;
72095;SDS011;59968;51.084;16.748;2023-04-15T07:39:14;0.70;;;0.60;;
72095;SDS011;59968;51.084;16.748;2023-04-15T07:41:43;0.70;;;0.70;;
72095;SDS011;59968;51.084;16.748;2023-04-15T07:44:14;1.40;;;0.50;;
72095;SDS011;59968;51.084;16.748;2023-04-15T07:46:43;1.40;;;0.60;;
72095;SDS011;59968;51.084;16.748;2023-04-15T07:49:12;0.80;;;0.60;;
72095;SDS011;59968;51.084;16.748;2023-04-15T07:51:41;0.60;;;0.60;;
72095;SDS011;59968;51.084;16.748;2023-04-15T07:54:11;0.60;;;0.50;;
72095;SDS011;59968;51.084;16.748;2023-04-15T07:56:40;0.50;;;0.50;;
72095;SDS011;59968;51.084;16.748;2023-04-15T07:59:08;0.60;;;0.50;;
72095;SDS011;59968;51.084;16.748;2023-04-15T08:01:37;0.80;;;0.50;;
72095;SDS011;59968;51.084;16.748;2023-04-15T08:04:06;0.70;;;0.50;;
72095;SDS011;59968;51.084;16.748;2023-04-15T08:06:35;0.90;;;0.60;;
72095;SDS011;59968;51.084;16.748;2023-04-15T08:09:07;0.80;;;0.50;;
72095;SDS011;59968;51.084;16.748;2023-04-15T08:11:36;0.70;;;0.50;;
72095;SDS011;59968;51.084;16.748;2023-04-15T08:14:05;0.40;;;0.40;;
72095;SDS011;59968;51.084;16.748;2023-04-15T08:16:35;0.60;;;0.60;;
72095;SDS011;59968;51.084;16.748;2023-04-15T08:19:05;0.60;;;0.50;;
72095;SDS011;59968;51.084;16.748;2023-04-15T08:21:35;3.00;;;0.50;;
72095;SDS011;59968;51.084;16.748;2023-04-15T08:24:04;1.00;;;0.40;;
72095;SDS011;59968;51.084;16.748;2023-04-15T08:26:33;0.40;;;0.40;;
72095;SDS011;59968;51.084;16.748;2023-04-15T08:29:02;0.60;;;0.50;;
72095;SDS011;59968;51.084;16.748;2023-04-15T08:31:32;1.00;;;0.40;;
72095;SDS011;59968;51.084;16.748;2023-04-15T08:34:01;0.50;;;0.40;;
72095;SDS011;59968;51.084;16.748;2023-04-15T08:36:30;0.80;;;0.60;;
72095;SDS011;59968;51.084;16.748;2023-04-15T08:38:59;0.90;;;0.70;;
72095;SDS011;59968;51.084;16.748;2023-04-15T08:41:45;1.00;;;0.60;;
72095;SDS011;59968;51.084;16.748;2023-04-15T08:44:14;0.60;;;0.60;;
72095;SDS011;59968;51.084;16.748;2023-04-15T08:46:45;0.70;;;0.50;;
72095;SDS011;59968;51.084;16.748;2023-04-15T08:49:15;0.80;;;0.40;;
72095;SDS011;59968;51.084;16.748;2023-04-15T08:51:46;0.80;;;0.60;;
72095;SDS011;59968;51.084;16.748;2023-04-15T08:54:15;0.60;;;0.60;;
72095;SDS011;59968;51.084;16.748;2023-04-15T08:56:44;2.20;;;0.60;;
72095;SDS011;59968;51.084;16.748;2023-04-15T08:59:13;1.00;;;0.60;;
72095;SDS011;59968;51.084;16.748;2023-04-15T09:01:43;0.90;;;0.50;;
72095;SDS011;59968;51.084;16.748;2023-04-15T09:04:12;1.50;;;0.60;;
72095;SDS011;59968;51.084;16.748;2023-04-15T09:06:41;1.20;;;0.90;;
72095;SDS011;59968;51.084;16.748;2023-04-15T09:09:11;0.90;;;0.70;;
72095;SDS011;59968;51.084;16.748;2023-04-15T09:11:41;1.10;;;0.60;;
72095;SDS011;59968;51.084;16.748;2023-04-15T09:14:11;0.40;;;0.40;;
72095;SDS011;59968;51.084;16.748;2023-04-15T09:16:57;0.50;;;0.50;;
72095;SDS011;59968;51.084;16.748;2023-04-15T09:19:28;0.50;;;0.40;;
72095;SDS011;59968;51.084;16.748;2023-04-15T09:21:58;1.00;;;0.50;;
72095;SDS011;59968;51.084;16.748;2023-04-15T09:24:34;0.60;;;0.60;;
72095;SDS011;59968;51.084;16.748;2023-04-15T09:27:05;0.60;;;0.60;;
72095;SDS011;59968;51.084;16.748;2023-04-15T09:29:34;0.70;;;0.60;;
72095;SDS011;59968;51.084;16.748;2023-04-15T09:32:11;0.70;;;0.50;;
72095;SDS011;59968;51.084;16.748;2023-04-15T09:34:41;1.10;;;0.60;;
72095;SDS011;59968;51.084;16.748;2023-04-15T09:37:10;0.70;;;0.70;;
72095;SDS011;59968;51.084;16.748;2023-04-15T09:39:58;0.50;;;0.50;;
72095;SDS011;59968;51.084;16.748;2023-04-15T09:42:27;0.80;;;0.70;;
72095;SDS011;59968;51.084;16.748;2023-04-15T09:45:06;0.50;;;0.50;;
72095;SDS011;59968;51.084;16.748;2023-04-15T09:47:36;0.80;;;0.60;;
72095;SDS011;59968;51.084;16.748;2023-04-15T09:50:05;0.70;;;0.60;;
72095;SDS011;59968;51.084;16.748;2023-04-15T09:52:39;0.80;;;0.70;;
72095;SDS011;59968;51.084;16.748;2023-04-15T09:55:17;0.70;;;0.60;;
72095;SDS011;59968;51.084;16.748;2023-04-15T09:57:45;1.00;;;0.90;;
72095;SDS011;59968;51.084;16.748;2023-04-15T10:00:14;1.90;;;0.90;;
72095;SDS011;59968;51.084;16.748;2023-04-15T10:02:43;1.10;;;0.90;;
72095;SDS011;59968;51.084;16.748;2023-04-15T10:05:15;1.10;;;0.90;;
72095;SDS011;59968;51.084;16.748;2023-04-15T10:07:44;1.10;;;0.90;;
72095;SDS011;59968;51.084;16.748;2023-04-15T10:10:14;1.10;;;0.90;;
72095;SDS011;59968;51.084;16.748;2023-04-15T10:12:43;1.10;;;0.80;;
72095;SDS011;59968;51.084;16.748;2023-04-15T10:15:15;1.10;;;0.90;;
72095;SDS011;59968;51.084;16.748;2023-04-15T10:17:44;0.90;;;0.70;;
72095;SDS011;59968;51.084;16.748;2023-04-15T10:20:17;0.80;;;0.80;;
72095;SDS011;59968;51.084;16.748;2023-04-15T10:22:46;0.90;;;0.70;;
72095;SDS011;59968;51.084;16.748;2023-04-15T10:25:15;1.20;;;1.10;;
72095;SDS011;59968;51.084;16.748;2023-04-15T10:27:45;1.10;;;0.70;;
72095;SDS011;59968;51.084;16.748;2023-04-15T10:30:16;1.30;;;0.70;;
72095;SDS011;59968;51.084;16.748;2023-04-15T10:32:46;0.80;;;0.70;;
72095;SDS011;59968;51.084;16.748;2023-04-15T10:35:16;0.90;;;0.80;;
72095;SDS011;59968;51.084;16.748;2023-04-15T10:37:48;0.70;;;0.60;;
72095;SDS011;59968;51.084;16.748;2023-04-15T10:40:24;1.10;;;0.80;;
72095;SDS011;59968;51.084;16.748;2023-04-15T10:42:55;0.60;;;0.60;;
72095;SDS011;59968;51.084;16.748;2023-04-15T10:45:35;1.30;;;0.60;;
72095;SDS011;59968;51.084;16.748;2023-04-15T10:48:06;0.80;;;0.60;;
72095;SDS011;59968;51.084;16.748;2023-04-15T10:50:36;1.20;;;1.10;;
72095;SDS011;59968;51.084;16.748;2023-04-15T10:53:04;1.20;;;1.10;;
72095;SDS011;59968;51.084;16.748;2023-04-15T10:55:34;2.50;;;1.00;;
72095;SDS011;59968;51.084;16.748;2023-04-15T10:58:02;1.10;;;0.90;;
72095;SDS011;59968;51.084;16.748;2023-04-15T11:00:31;1.40;;;1.10;;
72095;SDS011;59968;51.084;16.748;2023-04-15T11:03:05;1.40;;;0.80;;
72095;SDS011;59968;51.084;16.748;2023-04-15T11:08:11;1.10;;;0.80;;
72095;SDS011;59968;51.084;16.748;2023-04-15T11:15:40;1.00;;;0.90;;
72095;SDS011;59968;51.084;16.748;2023-04-15T11:18:17;2.10;;;0.90;;
72095;SDS011;59968;51.084;16.748;2023-04-15T11:20:51;1.10;;;1.00;;
72095;SDS011;59968;51.084;16.748;2023-04-15T11:23:33;0.90;;;0.90;;
72095;SDS011;59968;51.084;16.748;2023-04-15T11:26:03;1.60;;;0.80;;
72095;SDS011;59968;51.084;16.748;2023-04-15T11:28:37;1.40;;;1.20;;
72095;SDS011;59968;51.084;16.748;2023-04-15T11:31:09;0.90;;;0.70;;
72095;SDS011;59968;51.084;16.748;2023-04-15T11:33:46;0.80;;;0.70;;
72095;SDS011;59968;51.084;16.748;2023-04-15T11:36:24;1.00;;;0.80;;
72095;SDS011;59968;51.084;16.748;2023-04-15T11:38:54;1.40;;;1.00;;
72095;SDS011;59968;51.084;16.748;2023-04-15T11:41:26;1.20;;;1.00;;
72095;SDS011;59968;51.084;16.748;2023-04-15T11:43:55;1.00;;;0.90;;
72095;SDS011;59968;51.084;16.748;2023-04-15T11:46:30;1.00;;;0.70;;
72095;SDS011;59968;51.084;16.748;2023-04-15T11:48:59;1.70;;;1.00;;
72095;SDS011;59968;51.084;16.748;2023-04-15T11:51:30;1.20;;;1.00;;
72095;SDS011;59968;51.084;16.748;2023-04-15T11:54:01;1.10;;;1.00;;
72095;SDS011;59968;51.084;16.748;2023-04-15T11:56:31;1.20;;;0.90;;
72095;SDS011;59968;51.084;16.748;2023-04-15T11:59:00;1.00;;;0.70;;
72095;SDS011;59968;51.084;16.748;2023-04-15T12:01:36;1.20;;;1.00;;
72095;SDS011;59968;51.084;16.748;2023-04-15T12:04:15;1.30;;;1.10;;
72095;SDS011;59968;51.084;16.748;2023-04-15T12:06:52;0.90;;;0.80;;
72095;SDS011;59968;51.084;16.748;2023-04-15T12:09:20;0.90;;;0.90;;
72095;SDS011;59968;51.084;16.748;2023-04-15T12:11:49;1.10;;;1.00;;
72095;SDS011;59968;51.084;16.748;2023-04-15T12:14:30;1.50;;;1.10;;
72095;SDS011;59968;51.084;16.748;2023-04-15T12:17:01;1.10;;;1.00;;
72095;SDS011;59968;51.084;16.748;2023-04-15T12:19:37;2.10;;;1.30;;
72095;SDS011;59968;51.084;16.748;2023-04-15T12:22:12;1.20;;;0.80;;
72095;SDS011;59968;51.084;16.748;2023-04-15T12:24:44;1.20;;;1.10;;
72095;SDS011;59968;51.084;16.748;2023-04-15T12:27:15;1.60;;;1.00;;
72095;SDS011;59968;51.084;16.748;2023-04-15T12:29:44;1.00;;;0.90;;
72095;SDS011;59968;51.084;16.748;2023-04-15T12:32:13;0.80;;;0.80;;
72095;SDS011;59968;51.084;16.748;2023-04-15T12:34:44;1.10;;;0.90;;
72095;SDS011;59968;51.084;16.748;2023-04-15T12:37:20;0.80;;;0.70;;
72095;SDS011;59968;51.084;16.748;2023-04-15T12:39:50;1.00;;;0.80;;
72095;SDS011;59968;51.084;16.748;2023-04-15T12:42:19;2.20;;;0.90;;
72095;SDS011;59968;51.084;16.748;2023-04-15T12:44:47;1.50;;;0.90;;
72095;SDS011;59968;51.084;16.748;2023-04-15T12:47:16;1.10;;;0.90;;
72095;SDS011;59968;51.084;16.748;2023-04-15T12:49:45;1.50;;;2.00;;
72095;SDS011;59968;51.084;16.748;2023-04-15T12:52:14;0.90;;;0.70;;
72095;SDS011;59968;51.084;16.748;2023-04-15T12:54:43;1.20;;;1.10;;
72095;SDS011;59968;51.084;16.748;2023-04-15T12:57:13;1.50;;;1.40;;
72095;SDS011;59968;51.084;16.748;2023-04-15T12:59:41;1.10;;;1.00;;
72095;SDS011;59968;51.084;16.748;2023-04-15T13:02:11;1.70;;;0.90;;
72095;SDS011;59968;51.084;16.748;2023-04-15T13:04:41;1.40;;;0.80;;
72095;SDS011;59968;51.084;16.748;2023-04-15T13:07:09;1.10;;;1.00;;
72095;SDS011;59968;51.084;16.748;2023-04-15T13:09:42;1.30;;;1.10;;
72095;SDS011;59968;51.084;16.748;2023-04-15T13:12:11;1.00;;;0.90;;
72095;SDS011;59968;51.084;16.748;2023-04-15T13:14:41;1.30;;;1.00;;
72095;SDS011;59968;51.084;16.748;2023-04-15T13:17:10;1.10;;;0.90;;
72095;SDS011;59968;51.084;16.748;2023-04-15T13:19:38;1.10;;;0.90;;
72095;SDS011;59968;51.084;16.748;2023-04-15T13:22:07;1.00;;;0.90;;
72095;SDS011;59968;51.084;16.748;2023-04-15T13:24:37;1.30;;;1.00;;
72095;SDS011;59968;51.084;16.748;2023-04-15T13:27:07;1.50;;;1.10;;
72095;SDS011;59968;51.084;16.748;2023-04-15T13:29:35;1.40;;;1.30;;
72095;SDS011;59968;51.084;16.748;2023-04-15T13:32:04;1.50;;;1.10;;
72095;SDS011;59968;51.084;16.748;2023-04-15T13:34:33;1.30;;;0.90;;
72095;SDS011;59968;51.084;16.748;2023-04-15T13:37:05;1.40;;;1.00;;
72095;SDS011;59968;51.084;16.748;2023-04-15T13:39:35;1.20;;;1.10;;
72095;SDS011;59968;51.084;16.748;2023-04-15T13:42:04;1.90;;;0.90;;
72095;SDS011;59968;51.084;16.748;2023-04-15T13:44:33;1.00;;;0.90;;
72095;SDS011;59968;51.084;16.748;2023-04-15T13:47:02;1.10;;;0.90;;
72095;SDS011;59968;51.084;16.748;2023-04-15T13:49:31;1.20;;;0.80;;
72095;SDS011;59968;51.084;16.748;2023-04-15T13:51:59;1.40;;;0.90;;
72095;SDS011;59968;51.084;16.748;2023-04-15T13:54:28;1.80;;;1.10;;
72095;SDS011;59968;51.084;16.748;2023-04-15T13:57:05;1.70;;;1.30;;
72095;SDS011;59968;51.084;16.748;2023-04-15T13:59:34;1.30;;;1.10;;
72095;SDS011;59968;51.084;16.748;2023-04-15T14:02:02;1.60;;;1.10;;
72095;SDS011;59968;51.084;16.748;2023-04-15T14:04:31;1.40;;;1.10;;
72095;SDS011;59968;51.084;16.748;2023-04-15T14:07:00;1.60;;;1.00;;
72095;SDS011;59968;51.084;16.748;2023-04-15T14:09:32;1.30;;;1.20;;
72095;SDS011;59968;51.084;16.748;2023-04-15T14:12:02;1.20;;;1.10;;
72095;SDS011;59968;51.084;16.748;2023-04-15T14:14:31;1.90;;;1.30;;
72095;SDS011;59968;51.084;16.748;2023-04-15T14:17:00;1.40;;;1.00;;
72095;SDS011;59968;51.084;16.748;2023-04-15T14:19:30;2.40;;;1.20;;
72095;SDS011;59968;51.084;16.748;2023-04-15T14:22:00;1.30;;;1.20;;
72095;SDS011;59968;51.084;16.748;2023-04-15T14:24:28;1.40;;;1.10;;
72095;SDS011;59968;51.084;16.748;2023-04-15T14:26:58;1.70;;;1.10;;
72095;SDS011;59968;51.084;16.748;2023-04-15T14:29:27;1.40;;;1.00;;
72095;SDS011;59968;51.084;16.748;2023-04-15T14:31:56;1.30;;;1.10;;
72095;SDS011;59968;51.084;16.748;2023-04-15T14:34:39;1.50;;;1.10;;
72095;SDS011;59968;51.084;16.748;2023-04-15T14:37:08;1.60;;;1.10;;
72095;SDS011;59968;51.084;16.748;2023-04-15T14:39:37;1.30;;;1.20;;
72095;SDS011;59968;51.084;16.748;2023-04-15T14:42:07;1.20;;;0.90;;
72095;SDS011;59968;51.084;16.748;2023-04-15T14:44:36;1.70;;;1.30;;
72095;SDS011;59968;51.084;16.748;2023-04-15T14:47:04;1.50;;;1.20;;
72095;SDS011;59968;51.084;16.748;2023-04-15T14:49:33;1.20;;;0.90;;
72095;SDS011;59968;51.084;16.748;2023-04-15T14:52:02;1.20;;;1.00;;